createdAt,value
2023-03-01T00:00:44.336Z,0.28
2023-03-01T00:01:44.389Z,0.28
2023-03-01T00:02:44.434Z,0.29
2023-03-01T00:03:44.365Z,0.31
2023-03-01T00:04:44.343Z,0.32
2023-03-01T00:05:44.302Z,0.33
2023-03-01T00:06:44.288Z,0.33
2023-03-01T00:07:44.262Z,0.29
2023-03-01T00:08:44.266Z,0.29
2023-03-01T00:09:44.249Z,0.29
2023-03-01T00:10:44.272Z,0.31
2023-03-01T00:11:44.205Z,0.32
2023-03-01T00:12:44.230Z,0.32
2023-03-01T00:13:44.171Z,0.29
2023-03-01T00:14:44.204Z,0.31
2023-03-01T00:15:44.150Z,0.29
2023-03-01T00:16:44.322Z,0.28
2023-03-01T00:17:44.203Z,0.29
2023-03-01T00:18:44.135Z,0.28
2023-03-01T00:19:44.088Z,0.26
2023-03-01T00:20:44.125Z,0.28
2023-03-01T00:21:44.067Z,0.32
2023-03-01T00:22:44.096Z,0.31
2023-03-01T00:23:44.058Z,0.31
2023-03-01T00:24:44.049Z,0.29
2023-03-01T00:25:44.038Z,0.32
2023-03-01T00:26:44.035Z,0.33
2023-03-01T00:27:44.017Z,0.36
2023-03-01T00:28:43.999Z,0.36
2023-03-01T00:29:43.964Z,0.41
2023-03-01T00:30:43.995Z,0.42
2023-03-01T00:31:44.101Z,0.38
2023-03-01T00:32:43.988Z,0.39
2023-03-01T00:33:43.936Z,0.36
2023-03-01T00:34:43.928Z,0.38
2023-03-01T00:35:44.052Z,0.35
2023-03-01T00:36:43.922Z,0.38
2023-03-01T00:37:43.866Z,0.39
2023-03-01T00:38:43.913Z,0.41
2023-03-01T00:39:43.859Z,0.36
2023-03-01T00:40:43.851Z,0.33
2023-03-01T00:41:43.899Z,0.36
2023-03-01T00:42:43.833Z,0.36
2023-03-01T00:43:43.805Z,0.39
2023-03-01T00:44:43.815Z,0.39
2023-03-01T00:45:43.760Z,0.42
2023-03-01T00:46:43.772Z,0.42
2023-03-01T00:47:43.730Z,0.42
2023-03-01T00:48:43.776Z,0.44
2023-03-01T00:49:43.710Z,0.42
2023-03-01T00:50:43.727Z,0.39
2023-03-01T00:51:43.693Z,0.35
2023-03-01T00:52:43.703Z,0.33
2023-03-01T00:53:43.661Z,0.33
2023-03-01T00:54:43.699Z,0.32
2023-03-01T00:55:43.673Z,0.36
2023-03-01T00:56:43.650Z,0.39
2023-03-01T00:57:43.603Z,0.38
2023-03-01T00:58:43.651Z,0.38
2023-03-01T00:59:43.580Z,0.36
2023-03-01T01:00:43.623Z,0.32
2023-03-01T01:01:43.651Z,0.29
2023-03-01T01:02:43.617Z,0.28
2023-03-01T01:03:43.532Z,0.31
2023-03-01T01:04:43.560Z,0.28
2023-03-01T01:05:43.513Z,0.24
2023-03-01T01:06:43.635Z,0.21
2023-03-01T01:07:43.474Z,0.20
2023-03-01T01:08:43.488Z,0.21
2023-03-01T01:09:43.479Z,0.18
2023-03-01T01:10:43.472Z,0.13
2023-03-01T01:11:43.428Z,0.10
2023-03-01T01:12:43.452Z,0.08
2023-03-01T01:13:43.397Z,0.08
2023-03-01T01:14:43.402Z,0.07
2023-03-01T01:15:43.484Z,0.08
2023-03-01T01:16:43.403Z,0.10
2023-03-01T01:17:43.334Z,0.10
2023-03-01T01:18:43.356Z,0.07
2023-03-01T01:19:43.324Z,0.02
2023-03-01T01:20:43.328Z,0.03
2023-03-01T01:21:43.310Z,0.02
2023-03-01T01:22:43.290Z,-0.01
2023-03-01T01:23:43.273Z,-0.01
2023-03-01T01:24:43.292Z,0.00
2023-03-01T01:25:43.247Z,0.07
2023-03-01T01:26:43.273Z,0.10
2023-03-01T01:27:43.208Z,0.08
2023-03-01T01:28:43.222Z,0.08
2023-03-01T01:29:43.221Z,0.10
2023-03-01T01:30:43.202Z,0.15
2023-03-01T01:31:43.149Z,0.14
2023-03-01T01:32:43.162Z,0.13
2023-03-01T01:33:43.125Z,0.07
2023-03-01T01:34:43.156Z,0.02
2023-03-01T01:35:43.202Z,0.00
2023-03-01T01:36:43.119Z,0.00
2023-03-01T01:37:43.080Z,-0.01
2023-03-01T01:38:43.106Z,-0.01
2023-03-01T01:39:43.082Z,0.00
2023-03-01T01:40:43.065Z,0.00
2023-03-01T01:41:43.033Z,-0.03
2023-03-01T01:42:43.070Z,-0.04
2023-03-01T01:43:43.000Z,-0.04
2023-03-01T01:44:43.029Z,0.02
2023-03-01T01:45:42.976Z,0.00
2023-03-01T01:46:43.022Z,-0.03
2023-03-01T01:47:42.963Z,-0.01
2023-03-01T01:48:42.971Z,-0.01
2023-03-01T01:49:42.934Z,-0.03
2023-03-01T01:50:42.948Z,0.03
2023-03-01T01:51:42.917Z,0.04
2023-03-01T01:52:42.962Z,0.04
2023-03-01T01:53:42.856Z,0.02
2023-03-01T01:54:42.893Z,-0.03
2023-03-01T01:55:42.843Z,-0.04
2023-03-01T01:56:42.871Z,-0.05
2023-03-01T01:57:42.836Z,-0.04
2023-03-01T01:58:42.834Z,-0.03
2023-03-01T01:59:42.805Z,-0.03
2023-03-01T02:00:42.800Z,-0.05
2023-03-01T02:01:42.809Z,-0.05
2023-03-01T02:02:42.849Z,-0.07
2023-03-01T02:03:42.844Z,-0.04
2023-03-01T02:04:42.750Z,-0.07
2023-03-01T02:05:42.708Z,-0.10
2023-03-01T02:06:42.740Z,-0.10
2023-03-01T02:07:42.699Z,-0.08
2023-03-01T02:08:42.718Z,-0.08
2023-03-01T02:09:42.658Z,-0.08
2023-03-01T02:10:42.660Z,-0.10
2023-03-01T02:11:42.651Z,-0.11
2023-03-01T02:12:42.646Z,-0.14
2023-03-01T02:13:42.606Z,-0.14
2023-03-01T02:14:42.620Z,-0.15
2023-03-01T02:15:42.598Z,-0.16
2023-03-01T02:16:42.612Z,-0.18
2023-03-01T02:17:42.631Z,-0.19
2023-03-01T02:18:42.552Z,-0.19
2023-03-01T02:19:42.572Z,-0.21
2023-03-01T02:20:42.535Z,-0.19
2023-03-01T02:21:42.512Z,-0.23
2023-03-01T02:22:42.527Z,-0.26
2023-03-01T02:23:42.494Z,-0.26
2023-03-01T02:24:42.491Z,-0.25
2023-03-01T02:25:42.512Z,-0.22
2023-03-01T02:26:42.477Z,-0.26
2023-03-01T02:27:42.451Z,-0.28
2023-03-01T02:28:42.440Z,-0.26
2023-03-01T02:29:42.453Z,-0.23
2023-03-01T02:30:42.405Z,-0.22
2023-03-01T02:31:42.406Z,-0.25
2023-03-01T02:32:42.372Z,-0.25
2023-03-01T02:33:42.356Z,-0.28
2023-03-01T02:34:42.366Z,-0.26
2023-03-01T02:35:42.323Z,-0.25
2023-03-01T02:36:42.364Z,-0.26
2023-03-01T02:37:42.289Z,-0.26
2023-03-01T02:38:42.304Z,-0.29
2023-03-01T02:39:42.305Z,-0.23
2023-03-01T02:40:42.275Z,-0.22
2023-03-01T02:41:42.246Z,-0.19
2023-03-01T02:42:42.277Z,-0.22
2023-03-01T02:43:42.264Z,-0.23
2023-03-01T02:44:42.232Z,-0.28
2023-03-01T02:45:42.182Z,-0.28
2023-03-01T02:46:42.250Z,-0.28
2023-03-01T02:47:42.208Z,-0.28
2023-03-01T02:48:42.190Z,-0.31
2023-03-01T02:49:42.137Z,-0.31
2023-03-01T02:50:42.156Z,-0.36
2023-03-01T02:51:42.116Z,-0.39
2023-03-01T02:52:42.245Z,-0.37
2023-03-01T02:53:42.083Z,-0.37
2023-03-01T02:54:42.092Z,-0.39
2023-03-01T02:55:42.063Z,-0.42
2023-03-01T02:56:42.110Z,-0.44
2023-03-01T02:57:42.047Z,-0.44
2023-03-01T02:58:42.067Z,-0.44
2023-03-01T02:59:42.011Z,-0.44
2023-03-01T03:00:42.120Z,-0.46
2023-03-01T03:01:41.990Z,-0.47
2023-03-01T03:02:41.999Z,-0.47
2023-03-01T03:03:42.045Z,-0.51
2023-03-01T03:04:41.970Z,-0.52
2023-03-01T03:05:41.957Z,-0.51
2023-03-01T03:06:41.940Z,-0.51
2023-03-01T03:07:41.908Z,-0.52
2023-03-01T03:08:42.024Z,-0.54
2023-03-01T03:09:41.877Z,-0.55
2023-03-01T03:10:41.913Z,-0.55
2023-03-01T03:11:41.867Z,-0.58
2023-03-01T03:12:41.890Z,-0.57
2023-03-01T03:13:41.844Z,-0.55
2023-03-01T03:14:41.832Z,-0.60
2023-03-01T03:15:41.823Z,-0.61
2023-03-01T03:16:41.875Z,-0.61
2023-03-01T03:17:41.780Z,-0.62
2023-03-01T03:18:41.779Z,-0.62
2023-03-01T03:19:41.745Z,-0.62
2023-03-01T03:20:41.789Z,-0.60
2023-03-01T03:21:41.723Z,-0.61
2023-03-01T03:22:41.745Z,-0.64
2023-03-01T03:23:41.699Z,-0.64
2023-03-01T03:24:41.700Z,-0.67
2023-03-01T03:25:41.666Z,-0.69
2023-03-01T03:26:41.708Z,-0.69
2023-03-01T03:27:41.641Z,-0.65
2023-03-01T03:28:41.665Z,-0.62
2023-03-01T03:29:41.614Z,-0.65
2023-03-01T03:30:41.641Z,-0.64
2023-03-01T03:31:41.622Z,-0.65
2023-03-01T03:32:41.661Z,-0.64
2023-03-01T03:33:41.571Z,-0.64
2023-03-01T03:34:41.576Z,-0.69
2023-03-01T03:35:41.554Z,-0.70
2023-03-01T03:36:41.558Z,-0.70
2023-03-01T03:37:41.519Z,-0.73
2023-03-01T03:38:41.547Z,-0.75
2023-03-01T03:39:41.519Z,-0.75
2023-03-01T03:40:41.488Z,-0.75
2023-03-01T03:41:41.472Z,-0.73
2023-03-01T03:42:41.474Z,-0.70
2023-03-01T03:43:41.431Z,-0.67
2023-03-01T03:44:41.457Z,-0.65
2023-03-01T03:45:41.429Z,-0.67
2023-03-01T03:46:41.437Z,-0.65
2023-03-01T03:47:41.372Z,-0.64
2023-03-01T03:48:41.432Z,-0.62
2023-03-01T03:49:41.353Z,-0.60
2023-03-01T03:50:41.367Z,-0.60
2023-03-01T03:51:41.324Z,-0.64
2023-03-01T03:52:41.347Z,-0.64
2023-03-01T03:53:41.331Z,-0.69
2023-03-01T03:54:41.315Z,-0.69
2023-03-01T03:55:41.296Z,-0.69
2023-03-01T03:56:41.279Z,-0.69
2023-03-01T03:57:41.266Z,-0.65
2023-03-01T03:58:41.268Z,-0.64
2023-03-01T03:59:41.266Z,-0.62
2023-03-01T04:00:41.235Z,-0.64
2023-03-01T04:01:41.304Z,-0.67
2023-03-01T04:02:41.307Z,-0.69
2023-03-01T04:03:41.231Z,-0.70
2023-03-01T04:04:41.168Z,-0.72
2023-03-01T04:05:41.176Z,-0.75
2023-03-01T04:06:41.133Z,-0.72
2023-03-01T04:07:41.148Z,-0.70
2023-03-01T04:08:41.139Z,-0.70
2023-03-01T04:09:41.153Z,-0.73
2023-03-01T04:10:41.088Z,-0.76
2023-03-01T04:11:41.096Z,-0.80
2023-03-01T04:12:41.055Z,-0.85
2023-03-01T04:13:41.095Z,-0.91
2023-03-01T04:14:41.040Z,-0.92
2023-03-01T04:15:41.040Z,-0.99
2023-03-01T04:16:41.044Z,-0.99
2023-03-01T04:17:40.980Z,-1.02
2023-03-01T04:18:40.998Z,-1.02
2023-03-01T04:19:40.990Z,-0.99
2023-03-01T04:20:40.974Z,-0.99
2023-03-01T04:21:40.944Z,-1.02
2023-03-01T04:22:40.937Z,-1.02
2023-03-01T04:23:40.946Z,-1.01
2023-03-01T04:24:40.947Z,-0.99
2023-03-01T04:25:40.921Z,-0.98
2023-03-01T04:26:40.890Z,-0.97
2023-03-01T04:27:40.858Z,-0.92
2023-03-01T04:28:40.887Z,-0.91
2023-03-01T04:29:40.837Z,-0.92
2023-03-01T04:30:40.902Z,-0.95
2023-03-01T04:31:40.837Z,-0.94
2023-03-01T04:32:40.839Z,-0.94
2023-03-01T04:33:40.779Z,-0.94
2023-03-01T04:34:40.788Z,-0.89
2023-03-01T04:35:40.872Z,-0.86
2023-03-01T04:36:40.885Z,-0.89
2023-03-01T04:37:40.726Z,-0.91
2023-03-01T04:38:40.751Z,-0.86
2023-03-01T04:39:40.713Z,-0.92
2023-03-01T04:40:40.717Z,-0.92
2023-03-01T04:41:40.707Z,-0.91
2023-03-01T04:42:40.682Z,-0.86
2023-03-01T04:43:40.646Z,-0.89
2023-03-01T04:44:40.657Z,-0.92
2023-03-01T04:45:40.676Z,-0.91
2023-03-01T04:46:40.649Z,-0.89
2023-03-01T04:47:40.593Z,-0.91
2023-03-01T04:48:40.614Z,-0.91
2023-03-01T04:49:40.570Z,-0.91
2023-03-01T04:50:40.596Z,-0.92
2023-03-01T04:51:40.577Z,-0.94
2023-03-01T04:52:40.605Z,-0.97
2023-03-01T04:53:40.516Z,-0.97
2023-03-01T04:54:40.530Z,-1.04
2023-03-01T04:55:40.495Z,-1.10
2023-03-01T04:56:40.532Z,-1.16
2023-03-01T04:57:40.482Z,-1.19
2023-03-01T04:58:40.497Z,-1.16
2023-03-01T04:59:40.462Z,-1.17
2023-03-01T05:00:40.460Z,-1.19
2023-03-01T05:01:40.451Z,-1.16
2023-03-01T05:02:40.462Z,-1.15
2023-03-01T05:03:42.052Z,-1.15
2023-03-01T05:04:40.449Z,-1.10
2023-03-01T05:05:40.379Z,-1.09
2023-03-01T05:06:40.412Z,-1.10
2023-03-01T05:07:40.365Z,-1.10
2023-03-01T05:08:40.348Z,-1.05
2023-03-01T05:09:40.312Z,-1.05
2023-03-01T05:10:40.365Z,-1.05
2023-03-01T05:11:40.301Z,-1.04
2023-03-01T05:12:40.314Z,-1.07
2023-03-01T05:13:40.310Z,-1.10
2023-03-01T05:14:40.282Z,-1.12
2023-03-01T05:15:40.263Z,-1.13
2023-03-01T05:16:40.268Z,-1.16
2023-03-01T05:17:40.209Z,-1.17
2023-03-01T05:18:40.235Z,-1.20
2023-03-01T05:19:40.190Z,-1.23
2023-03-01T05:20:40.210Z,-1.23
2023-03-01T05:21:40.177Z,-1.23
2023-03-01T05:22:40.188Z,-1.23
2023-03-01T05:23:40.148Z,-1.25
2023-03-01T05:24:40.186Z,-1.22
2023-03-01T05:25:40.120Z,-1.20
2023-03-01T05:26:40.702Z,-1.20
2023-03-01T05:27:40.081Z,-1.25
2023-03-01T05:28:40.162Z,-1.28
2023-03-01T05:29:40.053Z,-1.33
2023-03-01T05:30:40.062Z,-1.33
2023-03-01T05:31:40.056Z,-1.35
2023-03-01T05:32:40.046Z,-1.37
2023-03-01T05:33:40.035Z,-1.35
2023-03-01T05:34:40.019Z,-1.37
2023-03-01T05:35:40.002Z,-1.37
2023-03-01T05:36:39.988Z,-1.38
2023-03-01T05:37:39.959Z,-1.35
2023-03-01T05:38:39.961Z,-1.37
2023-03-01T05:39:39.947Z,-1.37
2023-03-01T05:40:39.938Z,-1.40
2023-03-01T05:41:39.900Z,-1.41
2023-03-01T05:42:39.928Z,-1.43
2023-03-01T05:43:39.870Z,-1.48
2023-03-01T05:44:39.900Z,-1.51
2023-03-01T05:45:39.848Z,-1.51
2023-03-01T05:46:39.910Z,-1.52
2023-03-01T05:47:39.833Z,-1.52
2023-03-01T05:48:39.874Z,-1.54
2023-03-01T05:49:39.976Z,-1.55
2023-03-01T05:50:39.811Z,-1.55
2023-03-01T05:51:39.775Z,-1.55
2023-03-01T05:52:39.795Z,-1.56
2023-03-01T05:53:39.750Z,-1.58
2023-03-01T05:54:39.861Z,-1.55
2023-03-01T05:55:39.726Z,-1.55
2023-03-01T05:56:39.748Z,-1.55
2023-03-01T05:57:39.698Z,-1.56
2023-03-01T05:58:39.815Z,-1.55
2023-03-01T05:59:39.705Z,-1.55
2023-03-01T06:00:39.692Z,-1.54
2023-03-01T06:01:39.721Z,-1.55
2023-03-01T06:02:39.667Z,-1.55
2023-03-01T06:03:39.625Z,-1.59
2023-03-01T06:04:39.641Z,-1.59
2023-03-01T06:05:39.676Z,-1.59
2023-03-01T06:06:39.623Z,-1.61
2023-03-01T06:07:39.581Z,-1.58
2023-03-01T06:08:39.605Z,-1.59
2023-03-01T06:09:39.567Z,-1.56
2023-03-01T06:10:39.556Z,-1.55
2023-03-01T06:11:39.526Z,-1.56
2023-03-01T06:12:39.528Z,-1.58
2023-03-01T06:13:39.521Z,-1.59
2023-03-01T06:14:39.491Z,-1.61
2023-03-01T06:15:39.522Z,-1.61
2023-03-01T06:16:39.493Z,-1.61
2023-03-01T06:17:39.460Z,-1.62
2023-03-01T06:18:39.487Z,-1.62
2023-03-01T06:19:39.417Z,-1.59
2023-03-01T06:20:39.452Z,-1.56
2023-03-01T06:21:39.381Z,-1.54
2023-03-01T06:22:39.402Z,-1.54
2023-03-01T06:23:39.380Z,-1.49
2023-03-01T06:24:39.368Z,-1.48
2023-03-01T06:25:39.381Z,-1.48
2023-03-01T06:26:39.354Z,-1.45
2023-03-01T06:27:39.331Z,-1.46
2023-03-01T06:28:40.289Z,-1.45
2023-03-01T06:29:41.155Z,-1.46
2023-03-01T06:30:39.325Z,-1.48
2023-03-01T06:31:39.333Z,-1.45
2023-03-01T06:32:39.278Z,-1.41
2023-03-01T06:33:39.254Z,-1.43
2023-03-01T06:34:39.249Z,-1.40
2023-03-01T06:35:39.233Z,-1.35
2023-03-01T06:36:39.250Z,-1.33
2023-03-01T06:37:39.205Z,-1.30
2023-03-01T06:38:39.203Z,-1.28
2023-03-01T06:39:39.163Z,-1.27
2023-03-01T06:40:39.186Z,-1.25
2023-03-01T06:41:39.130Z,-1.20
2023-03-01T06:42:39.138Z,-1.17
2023-03-01T06:43:39.110Z,-1.17
2023-03-01T06:44:39.122Z,-1.15
2023-03-01T06:45:39.086Z,-1.07
2023-03-01T06:46:39.179Z,-1.02
2023-03-01T06:47:39.056Z,-0.99
2023-03-01T06:48:39.085Z,-0.98
2023-03-01T06:49:39.033Z,-0.95
2023-03-01T06:50:39.125Z,-0.95
2023-03-01T06:51:39.037Z,-0.92
2023-03-01T06:52:39.009Z,-0.91
2023-03-01T06:53:38.985Z,-0.86
2023-03-01T06:54:39.004Z,-0.83
2023-03-01T06:55:38.966Z,-0.82
2023-03-01T06:56:38.982Z,-0.76
2023-03-01T06:57:38.930Z,-0.76
2023-03-01T06:58:38.965Z,-0.75
2023-03-01T06:59:38.913Z,-0.73
2023-03-01T07:00:38.936Z,-0.73
2023-03-01T07:01:38.912Z,-0.73
2023-03-01T07:02:38.968Z,-0.69
2023-03-01T07:03:38.869Z,-0.69
2023-03-01T07:04:38.863Z,-0.67
2023-03-01T07:05:38.829Z,-0.69
2023-03-01T07:06:38.858Z,-0.65
2023-03-01T07:07:38.818Z,-0.64
2023-03-01T07:08:38.830Z,-0.61
2023-03-01T07:09:38.777Z,-0.61
2023-03-01T07:10:38.773Z,-0.61
2023-03-01T07:11:38.742Z,-0.58
2023-03-01T07:12:38.777Z,-0.57
2023-03-01T07:13:38.711Z,-0.54
2023-03-01T07:14:38.733Z,-0.54
2023-03-01T07:15:38.676Z,-0.52
2023-03-01T07:16:38.708Z,-0.47
2023-03-01T07:17:38.656Z,-0.49
2023-03-01T07:18:38.718Z,-0.49
2023-03-01T07:19:38.643Z,-0.47
2023-03-01T07:20:38.677Z,-0.43
2023-03-01T07:21:38.607Z,-0.40
2023-03-01T07:22:38.623Z,-0.37
2023-03-01T07:23:38.606Z,-0.37
2023-03-01T07:24:38.612Z,-0.36
2023-03-01T07:25:38.576Z,-0.39
2023-03-01T07:26:38.560Z,-0.39
2023-03-01T07:27:38.565Z,-0.37
2023-03-01T07:28:38.539Z,-0.37
2023-03-01T07:29:38.555Z,-0.37
2023-03-01T07:30:38.523Z,-0.33
2023-03-01T07:31:38.501Z,-0.29
2023-03-01T07:32:38.619Z,-0.33
2023-03-01T07:33:38.460Z,-0.28
2023-03-01T07:34:38.463Z,-0.23
2023-03-01T07:35:38.535Z,-0.16
2023-03-01T07:36:38.450Z,-0.15
2023-03-01T07:37:38.442Z,-0.11
2023-03-01T07:38:38.412Z,-0.11
2023-03-01T07:39:38.403Z,-0.08
2023-03-01T07:40:38.395Z,-0.04
2023-03-01T07:41:38.378Z,-0.05
2023-03-01T07:42:38.384Z,-0.04
2023-03-01T07:43:38.325Z,-0.01
2023-03-01T07:44:38.394Z,0.07
2023-03-01T07:45:38.326Z,0.10
2023-03-01T07:46:38.296Z,0.13
2023-03-01T07:47:38.276Z,0.14
2023-03-01T07:48:38.291Z,0.15
2023-03-01T07:49:38.272Z,0.15
2023-03-01T07:50:38.291Z,0.18
2023-03-01T07:51:38.234Z,0.17
2023-03-01T07:52:38.249Z,0.17
2023-03-01T07:53:38.236Z,0.17
2023-03-01T07:54:38.234Z,0.21
2023-03-01T07:55:38.225Z,0.29
2023-03-01T07:56:38.182Z,0.33
2023-03-01T07:57:38.135Z,0.42
2023-03-01T07:58:38.163Z,0.46
2023-03-01T07:59:38.161Z,0.53
2023-03-01T08:00:38.160Z,0.51
2023-03-01T08:01:38.181Z,0.61
2023-03-01T08:02:38.096Z,0.68
2023-03-01T08:03:38.054Z,0.70
2023-03-01T08:04:38.078Z,0.76
2023-03-01T08:05:38.038Z,0.75
2023-03-01T08:06:38.063Z,0.78
2023-03-01T08:07:38.008Z,0.75
2023-03-01T08:08:38.017Z,0.73
2023-03-01T08:09:37.991Z,0.76
2023-03-01T08:10:38.015Z,0.78
2023-03-01T08:11:38.069Z,0.75
2023-03-01T08:12:37.962Z,0.75
2023-03-01T08:13:37.942Z,0.76
2023-03-01T08:14:37.930Z,0.79
2023-03-01T08:15:37.908Z,0.84
2023-03-01T08:16:38.004Z,0.79
2023-03-01T08:17:37.885Z,0.83
2023-03-01T08:18:37.878Z,0.90
2023-03-01T08:19:37.842Z,0.96
2023-03-01T08:20:37.873Z,1.00
2023-03-01T08:21:37.862Z,1.05
2023-03-01T08:22:37.847Z,1.11
2023-03-01T08:23:37.786Z,1.15
2023-03-01T08:24:37.796Z,1.22
2023-03-01T08:25:37.767Z,1.15
2023-03-01T08:26:37.850Z,1.16
2023-03-01T08:27:37.735Z,1.23
2023-03-01T08:28:37.770Z,1.24
2023-03-01T08:29:37.718Z,1.27
2023-03-01T08:30:37.735Z,1.30
2023-03-01T08:31:37.723Z,1.33
2023-03-01T08:32:37.801Z,1.33
2023-03-01T08:33:37.686Z,1.36
2023-03-01T08:34:37.668Z,1.30
2023-03-01T08:35:37.716Z,1.29
2023-03-01T08:36:37.608Z,1.34
2023-03-01T08:37:37.648Z,1.42
2023-03-01T08:38:37.582Z,1.47
2023-03-01T08:39:37.660Z,1.59
2023-03-01T08:40:37.578Z,1.62
2023-03-01T08:41:37.568Z,1.72
2023-03-01T08:42:37.572Z,1.77
2023-03-01T08:43:37.554Z,1.70
2023-03-01T08:44:37.505Z,1.81
2023-03-01T08:45:37.583Z,1.87
2023-03-01T08:46:37.487Z,1.93
2023-03-01T08:47:37.540Z,1.99
2023-03-01T08:48:37.477Z,2.09
2023-03-01T08:49:37.498Z,2.14
2023-03-01T08:50:37.430Z,2.07
2023-03-01T08:51:37.444Z,2.02
2023-03-01T08:52:37.444Z,1.99
2023-03-01T08:53:37.428Z,1.91
2023-03-01T08:54:37.371Z,1.93
2023-03-01T08:55:37.410Z,1.88
2023-03-01T08:56:37.366Z,1.98
2023-03-01T08:57:37.467Z,2.00
2023-03-01T08:58:37.319Z,2.09
2023-03-01T08:59:37.398Z,2.25
2023-03-01T09:00:37.303Z,2.35
2023-03-01T09:01:37.320Z,2.30
2023-03-01T09:02:37.334Z,2.39
2023-03-01T09:03:37.320Z,2.66
2023-03-01T09:04:37.247Z,2.79
2023-03-01T09:05:37.282Z,2.96
2023-03-01T09:06:37.215Z,3.03
2023-03-01T09:07:37.237Z,3.13
2023-03-01T09:08:37.227Z,2.93
2023-03-01T09:09:37.244Z,2.92
2023-03-01T09:10:37.161Z,2.85
2023-03-01T09:11:37.205Z,2.67
2023-03-01T09:12:37.152Z,2.54
2023-03-01T09:13:37.169Z,2.56
2023-03-01T09:14:37.140Z,2.61
2023-03-01T09:15:37.162Z,2.78
2023-03-01T09:16:37.312Z,2.87
2023-03-01T09:17:37.110Z,2.78
2023-03-01T09:18:37.088Z,2.66
2023-03-01T09:19:37.089Z,2.64
2023-03-01T09:20:37.070Z,2.71
2023-03-01T09:21:40.744Z,2.72
2023-03-01T09:22:37.029Z,2.79
2023-03-01T09:23:37.038Z,2.92
2023-03-01T09:24:37.008Z,2.85
2023-03-01T09:25:36.990Z,2.75
2023-03-01T09:26:36.969Z,2.85
2023-03-01T09:27:36.974Z,2.95
2023-03-01T09:28:36.938Z,3.06
2023-03-01T09:29:36.951Z,3.10
2023-03-01T09:30:37.400Z,3.29
2023-03-01T09:31:36.911Z,3.28
2023-03-01T09:32:37.018Z,3.33
2023-03-01T09:33:36.894Z,3.36
2023-03-01T09:34:36.845Z,3.36
2023-03-01T09:35:36.930Z,3.50
2023-03-01T09:36:36.867Z,3.61
2023-03-01T09:37:36.859Z,3.66
2023-03-01T09:38:36.791Z,3.61
2023-03-01T09:39:36.825Z,3.65
2023-03-01T09:40:36.795Z,3.52
2023-03-01T09:41:36.780Z,3.47
2023-03-01T09:42:36.767Z,3.50
2023-03-01T09:43:36.761Z,3.48
2023-03-01T09:44:36.746Z,3.55
2023-03-01T09:45:36.751Z,3.52
2023-03-01T09:46:36.722Z,3.69
2023-03-01T09:47:36.764Z,3.79
2023-03-01T09:48:36.645Z,3.62
2023-03-01T09:49:36.680Z,3.61
2023-03-01T09:50:36.638Z,3.72
2023-03-01T09:51:36.650Z,3.87
2023-03-01T09:52:36.648Z,3.80
2023-03-01T09:53:36.621Z,3.79
2023-03-01T09:54:36.585Z,3.79
2023-03-01T09:55:36.603Z,3.79
2023-03-01T09:56:36.566Z,3.80
2023-03-01T09:57:36.594Z,3.91
2023-03-01T09:58:36.551Z,4.12
2023-03-01T09:59:36.548Z,4.11
2023-03-01T10:00:36.505Z,3.96
2023-03-01T10:01:36.516Z,3.90
2023-03-01T10:02:36.521Z,3.90
2023-03-01T10:03:36.524Z,3.72
2023-03-01T10:04:37.654Z,3.72
2023-03-01T10:05:36.494Z,3.68
2023-03-01T10:06:36.439Z,3.69
2023-03-01T10:07:36.427Z,3.80
2023-03-01T10:08:36.432Z,3.91
2023-03-01T10:09:36.409Z,4.02
2023-03-01T10:10:36.381Z,4.27
2023-03-01T10:11:36.914Z,4.52
2023-03-01T10:12:36.357Z,4.65
2023-03-01T10:13:36.375Z,4.54
2023-03-01T10:14:36.342Z,4.44
2023-03-01T10:15:36.402Z,4.51
2023-03-01T10:16:36.285Z,4.45
2023-03-01T10:17:36.313Z,4.30
2023-03-01T10:18:36.287Z,4.33
2023-03-01T10:19:36.292Z,4.51
2023-03-01T10:20:36.241Z,4.59
2023-03-01T10:21:36.245Z,4.69
2023-03-01T10:22:36.261Z,4.73
2023-03-01T10:23:36.214Z,4.77
2023-03-01T10:24:36.179Z,4.82
2023-03-01T10:25:36.181Z,4.88
2023-03-01T10:26:36.188Z,4.86
2023-03-01T10:27:36.167Z,4.80
2023-03-01T10:28:36.153Z,5.07
2023-03-01T10:29:36.140Z,5.27
2023-03-01T10:30:36.155Z,5.35
2023-03-01T10:31:36.202Z,5.18
2023-03-01T10:32:36.213Z,4.94
2023-03-01T10:33:36.078Z,4.84
2023-03-01T10:34:36.056Z,4.70
2023-03-01T10:35:36.074Z,4.59
2023-03-01T10:36:36.035Z,4.51
2023-03-01T10:37:36.053Z,4.51
2023-03-01T10:38:36.012Z,4.65
2023-03-01T10:39:36.016Z,4.73
2023-03-01T10:40:35.998Z,4.78
2023-03-01T10:41:35.982Z,4.89
2023-03-01T10:42:35.949Z,4.96
2023-03-01T10:43:35.969Z,4.99
2023-03-01T10:44:35.917Z,4.86
2023-03-01T10:45:35.938Z,4.66
2023-03-01T10:46:35.972Z,4.62
2023-03-01T10:47:35.922Z,4.77
2023-03-01T10:48:35.854Z,4.86
2023-03-01T10:49:35.895Z,4.92
2023-03-01T10:50:35.832Z,5.03
2023-03-01T10:51:35.839Z,5.10
2023-03-01T10:52:35.829Z,5.09
2023-03-01T10:53:35.824Z,4.96
2023-03-01T10:54:35.801Z,4.84
2023-03-01T10:55:35.803Z,4.77
2023-03-01T10:56:35.761Z,4.80
2023-03-01T10:57:35.807Z,4.86
2023-03-01T10:58:35.740Z,4.84
2023-03-01T10:59:35.748Z,4.77
2023-03-01T11:00:35.711Z,4.82
2023-03-01T11:01:36.192Z,4.89
2023-03-01T11:02:35.701Z,4.96
2023-03-01T11:03:35.696Z,4.96
2023-03-01T11:04:35.685Z,5.12
2023-03-01T11:05:35.688Z,5.10
2023-03-01T11:06:35.618Z,5.02
2023-03-01T11:07:36.402Z,5.00
2023-03-01T11:08:35.631Z,5.03
2023-03-01T11:09:35.619Z,5.13
2023-03-01T11:10:35.590Z,5.18
2023-03-01T11:11:35.584Z,5.21
2023-03-01T11:12:35.559Z,5.25
2023-03-01T11:13:36.900Z,5.30
2023-03-01T11:14:35.557Z,5.39
2023-03-01T11:15:35.570Z,5.48
2023-03-01T11:16:35.481Z,5.54
2023-03-01T11:17:48.065Z,5.51
2023-03-01T11:18:47.025Z,5.53
2023-03-01T11:19:35.505Z,5.51
2023-03-01T11:20:35.444Z,5.39
2023-03-01T11:21:35.479Z,5.28
2023-03-01T11:22:35.491Z,5.38
2023-03-01T11:23:35.423Z,5.46
2023-03-01T11:24:35.429Z,5.42
2023-03-01T11:25:35.427Z,5.38
2023-03-01T11:26:35.348Z,5.46
2023-03-01T11:27:35.993Z,5.45
2023-03-01T11:28:35.321Z,5.46
2023-03-01T11:29:47.730Z,5.60
2023-03-01T11:30:35.368Z,5.61
2023-03-01T11:31:35.428Z,5.58
2023-03-01T11:32:35.385Z,5.60
2023-03-01T11:33:35.295Z,5.61
2023-03-01T11:34:35.271Z,5.57
2023-03-01T11:35:35.309Z,5.58
2023-03-01T11:36:35.217Z,5.54
2023-03-01T11:37:35.235Z,5.53
2023-03-01T11:38:35.198Z,5.54
2023-03-01T11:39:35.238Z,5.61
2023-03-01T11:40:35.232Z,5.71
2023-03-01T11:41:35.584Z,5.71
2023-03-01T11:42:35.174Z,5.74
2023-03-01T11:43:35.194Z,5.72
2023-03-01T11:44:35.167Z,5.78
2023-03-01T11:45:35.128Z,5.93
2023-03-01T11:46:35.215Z,5.91
2023-03-01T11:47:35.231Z,5.85
2023-03-01T11:48:48.820Z,5.72
2023-03-01T11:49:35.092Z,5.57
2023-03-01T11:50:35.070Z,5.48
2023-03-01T11:51:35.086Z,5.51
2023-03-01T11:52:35.007Z,5.61
2023-03-01T11:53:35.014Z,5.74
2023-03-01T11:54:35.030Z,5.97
2023-03-01T11:55:34.989Z,6.12
2023-03-01T11:56:35.060Z,6.21
2023-03-01T11:57:43.332Z,6.19
2023-03-01T11:58:34.945Z,6.15
2023-03-01T11:59:34.949Z,6.11
2023-03-01T12:00:34.912Z,6.06
2023-03-01T12:01:35.330Z,6.04
2023-03-01T12:02:34.999Z,6.08
2023-03-01T12:03:34.895Z,6.09
2023-03-01T12:04:34.916Z,6.09
2023-03-01T12:05:34.870Z,6.01
2023-03-01T12:06:34.847Z,5.94
2023-03-01T12:07:34.834Z,5.96
2023-03-01T12:08:34.809Z,6.06
2023-03-01T12:09:34.818Z,6.18
2023-03-01T12:10:34.780Z,6.28
2023-03-01T12:11:34.816Z,6.22
2023-03-01T12:12:34.779Z,6.15
2023-03-01T12:13:34.757Z,6.18
2023-03-01T12:14:34.705Z,6.22
2023-03-01T12:15:34.752Z,6.27
2023-03-01T12:16:39.558Z,6.18
2023-03-01T12:17:34.731Z,6.17
2023-03-01T12:18:34.806Z,6.18
2023-03-01T12:19:34.703Z,6.34
2023-03-01T12:20:34.657Z,6.40
2023-03-01T12:21:34.663Z,6.40
2023-03-01T12:22:34.638Z,6.52
2023-03-01T12:23:34.649Z,6.58
2023-03-01T12:24:34.613Z,6.59
2023-03-01T12:25:34.594Z,6.58
2023-03-01T12:26:34.561Z,6.56
2023-03-01T12:27:34.571Z,6.55
2023-03-01T12:28:34.555Z,6.51
2023-03-01T12:29:34.552Z,6.52
2023-03-01T12:30:34.491Z,6.43
2023-03-01T12:31:35.041Z,6.37
2023-03-01T12:32:36.143Z,6.34
2023-03-01T12:33:34.517Z,6.33
2023-03-01T12:34:34.452Z,6.33
2023-03-01T12:35:34.510Z,6.40
2023-03-01T12:36:34.430Z,6.46
2023-03-01T12:37:34.469Z,6.46
2023-03-01T12:38:34.408Z,6.54
2023-03-01T12:39:34.418Z,6.61
2023-03-01T12:40:34.379Z,6.69
2023-03-01T12:41:34.381Z,6.76
2023-03-01T12:42:34.379Z,6.80
2023-03-01T12:43:34.399Z,6.97
2023-03-01T12:44:34.323Z,6.98
2023-03-01T12:45:34.415Z,6.89
2023-03-01T12:46:34.309Z,6.85
2023-03-01T12:47:34.312Z,6.67
2023-03-01T12:48:34.302Z,6.73
2023-03-01T12:49:34.258Z,6.69
2023-03-01T12:50:34.268Z,6.64
2023-03-01T12:51:34.238Z,6.74
2023-03-01T12:52:34.255Z,6.80
2023-03-01T12:53:34.223Z,6.87
2023-03-01T12:54:34.254Z,6.89
2023-03-01T12:55:34.343Z,6.97
2023-03-01T12:56:34.328Z,7.02
2023-03-01T12:57:34.155Z,7.07
2023-03-01T12:58:48.664Z,7.03
2023-03-01T12:59:34.131Z,6.99
2023-03-01T13:00:34.163Z,7.03
2023-03-01T13:01:34.087Z,7.03
2023-03-01T13:02:34.133Z,7.10
2023-03-01T13:03:34.159Z,7.12
2023-03-01T13:04:35.322Z,7.12
2023-03-01T13:05:34.033Z,7.15
2023-03-01T13:06:42.570Z,7.13